createdAt,value
2018-08-11T00:01:14.772Z,6.10
2018-08-11T00:03:43.345Z,5.40
2018-08-11T00:06:11.915Z,5.83
2018-08-11T00:08:40.544Z,7.57
2018-08-11T00:11:09.133Z,3.57
2018-08-11T00:13:37.874Z,8.93
2018-08-11T00:16:06.489Z,5.30
2018-08-11T00:18:35.112Z,5.77
2018-08-11T00:21:03.768Z,11.33
2018-08-11T00:23:32.378Z,4.10
2018-08-11T00:26:01.067Z,6.13
2018-08-11T00:28:29.717Z,6.37
2018-08-11T00:30:58.320Z,8.40
2018-08-11T00:33:26.917Z,8.50
2018-08-11T00:35:55.547Z,5.80
2018-08-11T00:38:24.117Z,5.60
2018-08-11T00:40:52.682Z,5.60
2018-08-11T00:43:21.262Z,7.47
2018-08-11T00:45:49.856Z,5.87
2018-08-11T00:48:18.439Z,3.67
2018-08-11T00:50:46.995Z,5.30
2018-08-11T00:53:15.672Z,6.33
2018-08-11T00:55:44.233Z,6.23
2018-08-11T00:58:12.802Z,3.93
2018-08-11T01:00:41.334Z,3.87
2018-08-11T01:03:10.023Z,8.60
2018-08-11T01:05:39.602Z,7.80
2018-08-11T01:08:08.273Z,4.23
2018-08-11T01:10:36.845Z,8.63
2018-08-11T01:13:05.903Z,3.70
2018-08-11T01:15:34.923Z,7.80
2018-08-11T01:18:03.535Z,5.03
2018-08-11T01:20:32.158Z,15.43
2018-08-11T01:23:00.754Z,4.57
2018-08-11T01:25:29.585Z,3.40
2018-08-11T01:27:58.166Z,2.90
2018-08-11T01:30:26.791Z,4.27
2018-08-11T01:32:55.342Z,4.23
2018-08-11T01:35:24.017Z,6.40
2018-08-11T01:37:52.544Z,3.50
2018-08-11T01:40:21.118Z,5.00
2018-08-11T01:42:49.883Z,11.50
2018-08-11T01:45:18.918Z,5.47
2018-08-11T01:47:47.540Z,4.83
2018-08-11T01:50:16.853Z,5.40
2018-08-11T01:52:46.574Z,4.10
2018-08-11T01:55:16.704Z,3.40
2018-08-11T01:57:45.562Z,11.00
2018-08-11T02:00:15.610Z,4.27
2018-08-11T02:02:44.146Z,7.90
2018-08-11T02:05:13.441Z,6.20
2018-08-11T02:07:43.081Z,3.67
2018-08-11T02:10:15.320Z,4.30
2018-08-11T02:12:44.236Z,7.23
2018-08-11T02:15:13.884Z,11.10
2018-08-11T02:17:42.495Z,3.57
2018-08-11T02:20:13.715Z,3.20
2018-08-11T02:22:43.495Z,6.23
2018-08-11T02:25:12.267Z,6.87
2018-08-11T02:27:40.964Z,3.30
2018-08-11T02:30:12.063Z,5.03
2018-08-11T02:32:41.008Z,3.63
2018-08-11T02:35:10.846Z,5.37
2018-08-11T02:37:39.551Z,2.87
2018-08-11T02:40:09.997Z,5.10
2018-08-11T02:42:38.818Z,6.70
2018-08-11T02:45:09.145Z,3.77
2018-08-11T02:47:37.932Z,2.60
2018-08-11T02:50:08.414Z,2.50
2018-08-11T02:52:37.615Z,5.50
2018-08-11T02:55:06.577Z,10.63
2018-08-11T02:57:35.179Z,6.30
2018-08-11T03:00:03.846Z,3.53
2018-08-11T03:02:32.502Z,2.70
2018-08-11T03:05:01.100Z,2.70
2018-08-11T03:07:29.717Z,8.87
2018-08-11T03:09:58.326Z,8.37
2018-08-11T03:12:26.891Z,2.57
2018-08-11T03:14:55.663Z,3.43
2018-08-11T03:17:24.434Z,7.80
2018-08-11T03:19:53.150Z,6.03
2018-08-11T03:22:21.722Z,9.60
2018-08-11T03:24:50.271Z,4.47
2018-08-11T03:27:18.809Z,8.23
2018-08-11T03:29:47.449Z,6.23
2018-08-11T03:32:15.975Z,6.10
2018-08-11T03:34:44.530Z,7.80
2018-08-11T03:37:13.206Z,2.60
2018-08-11T03:39:41.918Z,2.60
2018-08-11T03:42:10.464Z,15.83
2018-08-11T03:44:39.120Z,5.40
2018-08-11T03:47:07.752Z,3.70
2018-08-11T03:49:36.302Z,5.03
2018-08-11T03:52:04.912Z,4.60
2018-08-11T03:54:53.259Z,6.00
2018-08-11T03:58:06.806Z,5.07
2018-08-11T04:00:36.436Z,1.87
2018-08-11T04:03:05.338Z,4.07
2018-08-11T04:05:33.889Z,1.93
2018-08-11T04:08:02.446Z,2.87
2018-08-11T04:10:31.027Z,4.10
2018-08-11T04:12:59.540Z,2.40
2018-08-11T04:15:28.109Z,2.73
2018-08-11T04:17:56.651Z,2.73
2018-08-11T04:20:25.253Z,3.40
2018-08-11T04:22:53.794Z,2.53
2018-08-11T04:25:22.333Z,3.43
2018-08-11T04:27:50.848Z,3.20
2018-08-11T04:30:19.367Z,4.83
2018-08-11T04:32:47.939Z,4.03
2018-08-11T04:35:16.479Z,3.40
2018-08-11T04:37:45.046Z,3.33
2018-08-11T04:40:13.659Z,4.90
2018-08-11T04:42:42.214Z,10.23
2018-08-11T04:45:11.155Z,6.20
2018-08-11T04:47:39.726Z,6.50
2018-08-11T04:50:08.318Z,2.57
2018-08-11T04:52:37.008Z,3.77
2018-08-11T04:55:05.982Z,2.13
2018-08-11T04:57:34.781Z,4.90
2018-08-11T05:00:03.397Z,11.63
2018-08-11T05:02:32.119Z,2.20
2018-08-11T05:05:00.646Z,4.13
2018-08-11T05:07:29.313Z,3.97
2018-08-11T05:09:57.849Z,2.10
2018-08-11T05:12:26.396Z,3.43
2018-08-11T05:14:54.907Z,5.17
2018-08-11T05:17:23.474Z,4.70
2018-08-11T05:19:52.106Z,5.73
2018-08-11T05:22:20.974Z,4.57
2018-08-11T05:24:49.912Z,4.80
2018-08-11T05:27:18.494Z,2.43
2018-08-11T05:29:47.081Z,2.47
2018-08-11T05:32:15.687Z,2.97
2018-08-11T05:34:44.216Z,4.60
2018-08-11T05:37:12.802Z,7.80
2018-08-11T05:39:41.349Z,4.00
2018-08-11T05:42:09.941Z,6.00
2018-08-11T05:44:38.514Z,4.83
2018-08-11T05:47:07.181Z,3.33
2018-08-11T05:49:35.793Z,5.90
2018-08-11T05:52:05.247Z,3.63
2018-08-11T05:54:34.214Z,6.73
2018-08-11T05:57:03.446Z,7.53
2018-08-11T05:59:32.827Z,3.20
2018-08-11T06:02:01.396Z,3.50
2018-08-11T06:04:30.030Z,2.10
2018-08-11T06:06:58.717Z,1.50
2018-08-11T06:09:27.239Z,5.10
2018-08-11T06:11:55.829Z,4.43
2018-08-11T06:14:24.393Z,2.20
2018-08-11T06:16:52.963Z,2.07
2018-08-11T06:19:21.650Z,4.50
2018-08-11T06:21:50.215Z,2.20
2018-08-11T06:24:18.785Z,1.80
2018-08-11T06:26:47.385Z,3.80
2018-08-11T06:29:16.122Z,3.33
2018-08-11T06:31:44.744Z,4.50
2018-08-11T06:34:13.363Z,2.50
2018-08-11T06:36:41.896Z,7.63
2018-08-11T06:39:13.707Z,2.70
2018-08-11T06:41:43.110Z,7.53
2018-08-11T06:44:13.364Z,3.40
2018-08-11T06:46:42.045Z,10.73
2018-08-11T06:49:12.099Z,2.73
2018-08-11T06:51:40.665Z,2.43
2018-08-11T06:54:09.230Z,2.93
2018-08-11T06:56:37.761Z,3.80
2018-08-11T06:59:06.644Z,3.23
2018-08-11T07:01:35.186Z,4.77
2018-08-11T07:04:03.840Z,3.80
2018-08-11T07:06:32.373Z,3.40
2018-08-11T07:09:00.950Z,6.10
2018-08-11T07:11:29.473Z,3.77
2018-08-11T07:13:58.060Z,4.87
2018-08-11T07:16:29.429Z,4.00
2018-08-11T07:18:58.025Z,6.03
2018-08-11T07:21:26.615Z,4.63
2018-08-11T07:23:55.120Z,4.07
2018-08-11T07:26:23.676Z,3.37
2018-08-11T07:28:53.277Z,4.73
2018-08-11T07:31:21.832Z,4.00
2018-08-11T07:33:50.405Z,5.50
2018-08-11T07:36:19.037Z,3.30
2018-08-11T07:38:47.649Z,4.30
2018-08-11T07:41:16.207Z,14.37
2018-08-11T07:43:45.078Z,7.67
2018-08-11T07:46:13.674Z,4.23
2018-08-11T07:48:42.250Z,4.67
2018-08-11T07:51:10.781Z,7.30
2018-08-11T07:53:39.329Z,5.23
2018-08-11T07:56:07.911Z,4.30
2018-08-11T07:58:36.467Z,7.10
2018-08-11T08:01:05.055Z,5.30
2018-08-11T08:03:33.666Z,6.30
2018-08-11T08:06:02.294Z,6.43
2018-08-11T08:08:30.879Z,7.63
2018-08-11T08:10:59.393Z,4.40
2018-08-11T08:13:27.949Z,7.63
2018-08-11T08:15:56.473Z,4.73
2018-08-11T08:18:25.052Z,5.57
2018-08-11T08:20:53.639Z,3.40
2018-08-11T08:23:22.207Z,4.17
2018-08-11T08:25:50.726Z,5.13
2018-08-11T08:28:19.843Z,4.20
2018-08-11T08:30:48.372Z,4.60
2018-08-11T08:33:16.965Z,2.53
2018-08-11T08:35:45.552Z,8.30
2018-08-11T08:38:14.250Z,3.23
2018-08-11T08:40:42.786Z,7.07
2018-08-11T08:43:11.320Z,7.23
2018-08-11T08:45:39.897Z,9.73
2018-08-11T08:48:08.732Z,4.70
2018-08-11T08:50:37.274Z,7.60
2018-08-11T08:53:05.928Z,7.70
2018-08-11T08:55:34.505Z,6.77
2018-08-11T08:58:03.081Z,5.17
2018-08-11T09:00:34.645Z,5.03
2018-08-11T09:03:07.099Z,6.83
2018-08-11T09:05:39.317Z,5.77
2018-08-11T09:08:11.666Z,6.03
2018-08-11T09:10:43.321Z,3.77
2018-08-11T09:13:12.178Z,4.57
2018-08-11T09:15:40.805Z,5.17
2018-08-11T09:18:09.349Z,3.57
2018-08-11T09:20:37.925Z,5.50
2018-08-11T09:23:07.035Z,4.60
2018-08-11T09:25:35.658Z,7.70
2018-08-11T09:28:04.293Z,5.20
2018-08-11T09:30:33.155Z,5.17
2018-08-11T09:33:01.788Z,4.80
2018-08-11T09:35:30.346Z,9.20
2018-08-11T09:37:59.027Z,4.40
2018-08-11T09:40:27.611Z,4.90
2018-08-11T09:42:56.221Z,3.43
2018-08-11T09:45:24.782Z,4.60
2018-08-11T09:47:53.312Z,7.10
2018-08-11T09:50:22.946Z,4.60
2018-08-11T09:52:51.496Z,5.63
2018-08-11T09:55:20.047Z,5.47
2018-08-11T09:57:48.569Z,8.13
2018-08-11T10:00:21.336Z,3.90
2018-08-11T10:02:49.913Z,4.30
2018-08-11T10:05:18.504Z,3.67
2018-08-11T10:07:47.094Z,5.43
2018-08-11T10:10:15.637Z,5.60
2018-08-11T10:12:44.174Z,2.80
2018-08-11T10:15:12.864Z,2.87
2018-08-11T10:17:41.418Z,3.57
2018-08-11T10:20:10.240Z,3.60
2018-08-11T10:22:38.771Z,4.53
2018-08-11T10:25:07.394Z,6.17
2018-08-11T10:27:35.939Z,2.77
2018-08-11T10:30:06.177Z,5.10
2018-08-11T10:32:34.702Z,4.20
2018-08-11T10:35:03.281Z,3.57
2018-08-11T10:37:31.797Z,4.53
2018-08-11T10:40:00.388Z,2.50
2018-08-11T10:42:28.898Z,4.53
2018-08-11T10:44:57.463Z,3.70
2018-08-11T10:47:26.151Z,2.77
2018-08-11T10:49:54.734Z,5.37
2018-08-11T10:52:23.298Z,2.33
2018-08-11T10:54:51.866Z,3.50
2018-08-11T10:57:20.417Z,5.70
2018-08-11T10:59:49.033Z,6.70
2018-08-11T11:02:17.579Z,6.07
2018-08-11T11:04:46.385Z,2.90
2018-08-11T11:07:15.056Z,12.57
2018-08-11T11:09:43.649Z,4.00
2018-08-11T11:12:12.248Z,8.83
2018-08-11T11:14:40.765Z,4.60
2018-08-11T11:17:09.324Z,3.43
2018-08-11T11:19:38.207Z,5.43
2018-08-11T11:22:07.426Z,6.60
2018-08-11T11:24:36.064Z,4.47
2018-08-11T11:27:04.626Z,5.80
2018-08-11T11:29:33.142Z,2.70
2018-08-11T11:32:01.690Z,3.90
2018-08-11T11:34:30.200Z,6.03
2018-08-11T11:36:58.791Z,2.33
2018-08-11T11:39:27.321Z,6.73
2018-08-11T11:41:55.875Z,3.77
2018-08-11T11:44:24.435Z,5.03
2018-08-11T11:46:53.005Z,4.70
2018-08-11T11:49:21.536Z,3.50
2018-08-11T11:51:50.085Z,6.00
2018-08-11T11:54:18.666Z,4.17
2018-08-11T11:56:47.486Z,4.93
2018-08-11T11:59:16.065Z,4.50
2018-08-11T12:01:44.664Z,4.93
2018-08-11T12:04:13.241Z,3.63
2018-08-11T12:06:41.783Z,5.13
2018-08-11T12:09:11.317Z,3.40
2018-08-11T12:11:39.966Z,4.10
2018-08-11T12:14:09.038Z,2.53
2018-08-11T12:16:37.810Z,4.70
2018-08-11T12:19:06.691Z,3.37
2018-08-11T12:21:35.293Z,3.97
2018-08-11T12:24:03.950Z,3.60
2018-08-11T12:26:32.515Z,3.10
2018-08-11T12:29:01.033Z,3.20
2018-08-11T12:31:29.614Z,3.33
2018-08-11T12:33:58.170Z,3.93
2018-08-11T12:36:26.770Z,3.47
2018-08-11T12:38:55.529Z,3.50
2018-08-11T12:41:24.074Z,2.40
2018-08-11T12:43:52.628Z,3.23
2018-08-11T12:46:21.185Z,8.67
2018-08-11T12:48:49.745Z,5.57
2018-08-11T12:51:18.321Z,5.17
2018-08-11T12:53:46.884Z,3.70
2018-08-11T12:56:15.686Z,2.57
2018-08-11T12:58:44.207Z,2.70
2018-08-11T13:01:12.770Z,3.10
2018-08-11T13:03:41.405Z,2.73
2018-08-11T13:06:09.978Z,3.80
2018-08-11T13:08:38.502Z,3.93
2018-08-11T13:11:07.027Z,2.90
2018-08-11T13:13:36.415Z,4.83
2018-08-11T13:16:05.022Z,6.70
2018-08-11T13:18:33.569Z,3.27
2018-08-11T13:21:02.129Z,2.17
2018-08-11T13:23:30.660Z,2.00
2018-08-11T13:25:59.227Z,4.20
2018-08-11T13:28:27.789Z,3.83
2018-08-11T13:30:56.313Z,2.23
2018-08-11T13:33:24.871Z,4.23
2018-08-11T13:35:53.495Z,2.77
2018-08-11T13:38:22.037Z,4.00
2018-08-11T13:40:50.557Z,4.27
2018-08-11T13:43:19.135Z,2.33
2018-08-11T13:45:47.692Z,2.40
2018-08-11T13:48:16.237Z,1.63
2018-08-11T13:50:44.830Z,2.13
2018-08-11T13:53:13.487Z,2.23
2018-08-11T13:55:42.029Z,2.07
2018-08-11T13:58:10.569Z,5.53
2018-08-11T14:00:39.665Z,2.53
2018-08-11T14:03:08.250Z,4.57
2018-08-11T14:05:36.803Z,2.30
2018-08-11T14:08:05.525Z,1.80
2018-08-11T14:10:34.053Z,3.47
2018-08-11T14:13:02.620Z,4.23
2018-08-11T14:15:31.603Z,1.60
2018-08-11T14:18:01.047Z,2.73
2018-08-11T14:20:30.028Z,1.57
2018-08-11T14:22:59.001Z,2.90
2018-08-11T14:25:27.888Z,1.70
2018-08-11T14:27:56.763Z,2.90
2018-08-11T14:30:26.157Z,8.33
2018-08-11T14:32:55.083Z,1.60
2018-08-11T14:35:24.085Z,1.93
2018-08-11T14:37:52.666Z,4.13
2018-08-11T14:40:21.230Z,3.47
2018-08-11T14:42:51.379Z,9.57
2018-08-11T14:45:20.826Z,7.50
2018-08-11T14:47:49.552Z,4.53
2018-08-11T14:50:18.144Z,3.33
2018-08-11T14:52:46.685Z,1.63
2018-08-11T14:55:15.277Z,3.30
2018-08-11T14:57:43.969Z,1.90
2018-08-11T15:00:13.618Z,3.30
2018-08-11T15:02:42.260Z,1.40
2018-08-11T15:05:11.242Z,3.60
2018-08-11T15:07:39.848Z,3.83
2018-08-11T15:10:10.202Z,3.30
2018-08-11T15:12:39.731Z,2.53
2018-08-11T15:15:09.880Z,6.13
2018-08-11T15:17:38.995Z,1.87
2018-08-11T15:20:08.463Z,1.93
2018-08-11T15:22:37.343Z,2.67
2018-08-11T15:25:07.648Z,2.40
2018-08-11T15:27:36.231Z,3.67
2018-08-11T15:30:06.838Z,1.47
2018-08-11T15:32:35.612Z,2.93
2018-08-11T15:35:04.824Z,2.77
2018-08-11T15:37:33.631Z,2.17
2018-08-11T15:40:02.399Z,3.50
2018-08-11T15:42:30.947Z,1.93
2018-08-11T15:44:59.482Z,2.67
2018-08-11T15:47:28.238Z,2.70
2018-08-11T15:49:56.797Z,2.93
2018-08-11T15:52:25.412Z,2.40
2018-08-11T15:54:54.217Z,2.00
2018-08-11T15:57:22.762Z,2.33
2018-08-11T15:59:51.343Z,2.70
2018-08-11T16:02:19.874Z,2.07
2018-08-11T16:04:48.482Z,2.70
2018-08-11T16:07:17.019Z,3.80
2018-08-11T16:09:45.593Z,3.70
2018-08-11T16:12:14.138Z,2.83
2018-08-11T16:14:42.695Z,4.63
2018-08-11T16:17:11.227Z,3.87
2018-08-11T16:19:39.840Z,3.00
2018-08-11T16:22:08.457Z,2.10
2018-08-11T16:24:37.054Z,3.23
2018-08-11T16:27:06.012Z,2.83
2018-08-11T16:29:34.578Z,1.40
2018-08-11T16:32:03.171Z,3.37
2018-08-11T16:34:31.729Z,1.70
2018-08-11T16:37:00.310Z,4.00
2018-08-11T16:39:28.944Z,2.50
2018-08-11T16:41:57.487Z,2.07
2018-08-11T16:44:26.041Z,1.63
2018-08-11T16:46:54.843Z,3.27
2018-08-11T16:49:23.465Z,4.37
2018-08-11T16:51:52.004Z,2.10
2018-08-11T16:54:21.046Z,9.03
2018-08-11T16:56:49.735Z,9.43
2018-08-11T16:59:18.421Z,4.50
2018-08-11T17:01:47.044Z,3.23
2018-08-11T17:04:15.687Z,5.80
2018-08-11T17:06:44.252Z,2.97
2018-08-11T17:09:12.879Z,2.27
2018-08-11T17:11:41.415Z,1.77
2018-08-11T17:14:09.941Z,2.23
2018-08-11T17:16:38.539Z,1.80
2018-08-11T17:19:07.226Z,1.80
2018-08-11T17:21:35.777Z,3.43
2018-08-11T17:24:04.356Z,2.37
2018-08-11T17:26:32.910Z,5.50
2018-08-11T17:29:01.484Z,4.17
2018-08-11T17:31:30.062Z,5.43
2018-08-11T17:33:58.732Z,2.30
2018-08-11T17:36:27.312Z,3.43
2018-08-11T17:38:55.856Z,5.77
2018-08-11T17:41:24.429Z,3.40
2018-08-11T17:43:52.966Z,4.03
2018-08-11T17:46:21.635Z,4.37
2018-08-11T17:48:50.181Z,2.70
2018-08-11T17:51:18.729Z,4.00
2018-08-11T17:53:47.285Z,3.60
2018-08-11T17:56:15.812Z,4.23
2018-08-11T17:58:44.410Z,4.10
2018-08-11T18:01:12.967Z,2.40
2018-08-11T18:03:41.513Z,5.83
2018-08-11T18:06:10.124Z,7.90
2018-08-11T18:08:38.687Z,4.70
2018-08-11T18:11:07.332Z,2.90
2018-08-11T18:13:35.848Z,2.70
2018-08-11T18:16:04.453Z,4.33
2018-08-11T18:18:32.999Z,3.17
2018-08-11T18:21:01.570Z,5.83
2018-08-11T18:23:30.180Z,20.97
2018-08-11T18:25:58.791Z,16.50
2018-08-11T18:28:27.324Z,12.97
2018-08-11T18:30:56.030Z,15.40
2018-08-11T18:33:24.623Z,11.50
2018-08-11T18:35:53.710Z,7.83
2018-08-11T18:38:22.270Z,5.47
2018-08-11T18:40:51.199Z,11.20
2018-08-11T18:43:19.760Z,5.70
2018-08-11T18:45:48.837Z,6.30
2018-08-11T18:48:17.353Z,8.63
2018-08-11T18:50:45.950Z,11.93
2018-08-11T18:53:14.725Z,14.47
2018-08-11T18:55:43.286Z,17.13
2018-08-11T18:58:11.842Z,14.47
2018-08-11T19:00:40.437Z,15.43
2018-08-11T19:03:08.971Z,12.60
2018-08-11T19:05:37.576Z,9.53
2018-08-11T19:08:06.662Z,19.37
2018-08-11T19:10:35.285Z,11.93
2018-08-11T19:13:04.049Z,10.20
2018-08-11T19:15:32.695Z,16.07
2018-08-11T19:18:01.374Z,17.40
2018-08-11T19:20:30.046Z,23.20
2018-08-11T19:22:58.582Z,17.37
2018-08-11T19:25:27.185Z,18.90
2018-08-11T19:27:55.768Z,13.13
2018-08-11T19:30:24.309Z,15.33
2018-08-11T19:32:52.894Z,15.53
2018-08-11T19:35:21.501Z,19.10
2018-08-11T19:37:50.087Z,13.13
2018-08-11T19:40:18.662Z,12.20
2018-08-11T19:42:47.243Z,10.37
2018-08-11T19:45:15.888Z,13.37
2018-08-11T19:47:44.501Z,10.40
2018-08-11T19:50:13.326Z,10.83
2018-08-11T19:52:42.570Z,12.50
2018-08-11T19:55:11.126Z,14.97
2018-08-11T19:57:39.722Z,13.23
2018-08-11T20:00:10.349Z,11.23
2018-08-11T20:02:39.300Z,11.37
2018-08-11T20:05:08.438Z,10.33
2018-08-11T20:07:37.090Z,11.10
2018-08-11T20:10:06.359Z,10.03
2018-08-11T20:12:35.190Z,6.80
2018-08-11T20:15:03.989Z,8.60
2018-08-11T20:17:32.596Z,7.60
2018-08-11T20:20:01.125Z,9.93
2018-08-11T20:22:29.745Z,8.63
2018-08-11T20:24:58.302Z,7.70
2018-08-11T20:27:26.925Z,9.13
2018-08-11T20:29:55.486Z,7.03
2018-08-11T20:32:24.065Z,7.60
2018-08-11T20:34:52.692Z,8.77
2018-08-11T20:37:21.349Z,10.53
2018-08-11T20:39:49.998Z,4.73
2018-08-11T20:42:18.621Z,7.10
2018-08-11T20:44:47.214Z,6.10
2018-08-11T20:47:15.811Z,6.67
2018-08-11T20:49:44.353Z,6.87
2018-08-11T20:52:12.960Z,7.33
2018-08-11T20:54:41.555Z,7.73
2018-08-11T20:57:10.208Z,8.80
2018-08-11T20:59:38.742Z,5.13
2018-08-11T21:02:07.483Z,5.87
2018-08-11T21:04:36.246Z,8.70
2018-08-11T21:07:04.958Z,5.17
2018-08-11T21:09:33.503Z,9.83
2018-08-11T21:12:02.078Z,5.57
2018-08-11T21:14:30.676Z,6.33
2018-08-11T21:16:59.797Z,5.30
2018-08-11T21:19:28.330Z,4.63
2018-08-11T21:21:56.911Z,4.23
2018-08-11T21:24:25.504Z,6.60
2018-08-11T21:26:54.073Z,5.73
2018-08-11T21:29:22.669Z,5.60
2018-08-11T21:31:51.235Z,5.03
2018-08-11T21:34:19.862Z,6.27
2018-08-11T21:36:48.442Z,11.77
2018-08-11T21:39:16.994Z,7.20
2018-08-11T21:41:45.556Z,4.60
2018-08-11T21:44:14.104Z,6.47
2018-08-11T21:46:42.634Z,4.67
2018-08-11T21:49:11.617Z,6.80
2018-08-11T21:51:40.215Z,7.00
2018-08-11T21:54:09.171Z,7.50
2018-08-11T21:56:37.969Z,4.93
2018-08-11T21:59:06.968Z,5.70
2018-08-11T22:01:35.565Z,5.10
2018-08-11T22:04:05.162Z,6.27
2018-08-11T22:06:33.740Z,7.33
2018-08-11T22:09:02.332Z,7.97
2018-08-11T22:11:30.917Z,5.43
2018-08-11T22:13:59.526Z,7.77
2018-08-11T22:16:28.074Z,7.47
2018-08-11T22:18:56.709Z,6.87
2018-08-11T22:21:25.266Z,6.07
2018-08-11T22:23:53.838Z,6.13
2018-08-11T22:26:22.410Z,7.23
2018-08-11T22:28:51.080Z,7.33
2018-08-11T22:31:19.684Z,5.63
2018-08-11T22:33:48.365Z,5.60
2018-08-11T22:36:17.129Z,7.50
2018-08-11T22:38:45.729Z,7.37
2018-08-11T22:41:14.294Z,6.97
2018-08-11T22:43:42.885Z,6.67
2018-08-11T22:46:11.511Z,7.00
2018-08-11T22:48:40.078Z,7.73
2018-08-11T22:51:08.603Z,9.67
2018-08-11T22:53:37.147Z,9.50
2018-08-11T22:56:06.214Z,10.90
2018-08-11T22:58:34.846Z,8.50
2018-08-11T23:01:03.494Z,8.93
2018-08-11T23:03:32.062Z,6.83
2018-08-11T23:06:00.619Z,8.30
2018-08-11T23:08:29.282Z,9.40
2018-08-11T23:10:57.896Z,10.77
2018-08-11T23:13:26.486Z,7.77
2018-08-11T23:15:55.070Z,10.20
2018-08-11T23:18:23.650Z,4.87
2018-08-11T23:20:52.230Z,7.27
2018-08-11T23:23:20.774Z,9.23
2018-08-11T23:25:49.439Z,8.57
2018-08-11T23:28:18.061Z,6.87
2018-08-11T23:30:46.637Z,6.70
2018-08-11T23:33:15.271Z,7.63
2018-08-11T23:35:43.880Z,8.93
2018-08-11T23:38:12.542Z,7.40
2018-08-11T23:40:41.027Z,7.67
2018-08-11T23:43:09.567Z,6.60
2018-08-11T23:45:38.160Z,7.47
2018-08-11T23:48:06.781Z,5.30
2018-08-11T23:50:35.356Z,6.77
2018-08-11T23:53:03.945Z,7.00
2018-08-11T23:55:32.539Z,8.00
2018-08-11T23:58:01.095Z,5.87
